sensor_id;sensor_type;location;lat;lon;timestamp;pressure;altitude;pressure_sealevel;temperature;humidity
72110;BME280;59983;52.010;5.420;2023-04-01T00:00:52;99095.38;;;9.48;100.00
72110;BME280;59983;52.010;5.420;2023-04-01T00:03:20;99094.63;;;9.51;100.00
72110;BME280;59983;52.010;5.420;2023-04-01T00:05:48;99089.19;;;9.51;100.00
72110;BME280;59983;52.010;5.420;2023-04-01T00:08:15;99088.81;;;9.49;100.00
72110;BME280;59983;52.010;5.420;2023-04-01T00:10:42;99096.16;;;9.52;100.00
72110;BME280;59983;52.010;5.420;2023-04-01T00:13:09;99099.25;;;9.50;100.00
72110;BME280;59983;52.010;5.420;2023-04-01T00:15:35;99094.63;;;9.51;100.00
72110;BME280;59983;52.010;5.420;2023-04-01T00:18:02;99096.53;;;9.50;100.00
72110;BME280;59983;52.010;5.420;2023-04-01T00:20:29;99096.19;;;9.55;100.00
72110;BME280;59983;52.010;5.420;2023-04-01T00:22:56;99101.19;;;9.53;100.00
72110;BME280;59983;52.010;5.420;2023-04-01T00:25:23;99099.25;;;9.54;100.00
72110;BME280;59983;52.010;5.420;2023-04-01T00:27:49;99103.91;;;9.53;100.00
72110;BME280;59983;52.010;5.420;2023-04-01T00:30:16;99100.84;;;9.55;100.00
72110;BME280;59983;52.010;5.420;2023-04-01T00:32:43;99100.06;;;9.54;100.00
72110;BME280;59983;52.010;5.420;2023-04-01T00:35:10;99119.34;;;9.53;100.00
72110;BME280;59983;52.010;5.420;2023-04-01T00:37:37;99118.19;;;9.50;100.00
72110;BME280;59983;52.010;5.420;2023-04-01T00:40:07;99109.31;;;9.50;100.00
72110;BME280;59983;52.010;5.420;2023-04-01T00:42:33;99115.50;;;9.50;100.00
72110;BME280;59983;52.010;5.420;2023-04-01T00:45:23;99114.31;;;9.48;100.00
72110;BME280;59983;52.010;5.420;2023-04-01T00:47:51;99110.44;;;9.45;100.00
72110;BME280;59983;52.010;5.420;2023-04-01T00:50:18;99115.44;;;9.43;100.00
72110;BME280;59983;52.010;5.420;2023-04-01T00:52:44;99109.66;;;9.41;100.00
72110;BME280;59983;52.010;5.420;2023-04-01T00:55:13;99115.06;;;9.41;100.00
72110;BME280;59983;52.010;5.420;2023-04-01T00:57:42;99127.03;;;9.40;100.00
72110;BME280;59983;52.010;5.420;2023-04-01T01:00:12;99117.00;;;9.41;100.00
72110;BME280;59983;52.010;5.420;2023-04-01T01:02:44;99120.84;;;9.40;100.00
72110;BME280;59983;52.010;5.420;2023-04-01T01:05:13;99129.75;;;9.40;100.00
72110;BME280;59983;52.010;5.420;2023-04-01T01:07:46;99123.94;;;9.38;100.00
72110;BME280;59983;52.010;5.420;2023-04-01T01:10:31;99127.03;;;9.36;100.00
72110;BME280;59983;52.010;5.420;2023-04-01T01:16:07;99128.94;;;9.32;100.00
72110;BME280;59983;52.010;5.420;2023-04-01T01:35:12;99136.59;;;9.20;100.00
72110;BME280;59983;52.010;5.420;2023-04-01T01:37:43;99138.09;;;9.17;100.00
72110;BME280;59983;52.010;5.420;2023-04-01T01:40:11;99138.47;;;9.16;100.00
72110;BME280;59983;52.010;5.420;2023-04-01T01:42:44;99151.63;;;9.17;100.00
72110;BME280;59983;52.010;5.420;2023-04-01T01:45:14;99148.16;;;9.17;100.00
72110;BME280;59983;52.010;5.420;2023-04-01T01:47:45;99153.16;;;9.15;100.00
72110;BME280;59983;52.010;5.420;2023-04-01T01:50:13;99148.13;;;9.13;100.00
72110;BME280;59983;52.010;5.420;2023-04-01T01:52:41;99154.69;;;9.12;100.00
72110;BME280;59983;52.010;5.420;2023-04-01T01:55:35;99148.09;;;9.09;100.00
72110;BME280;59983;52.010;5.420;2023-04-01T01:58:10;99153.13;;;9.07;100.00
72110;BME280;59983;52.010;5.420;2023-04-01T02:00:38;99141.53;;;9.07;100.00
72110;BME280;59983;52.010;5.420;2023-04-01T02:03:05;99152.34;;;9.07;100.00
72110;BME280;59983;52.010;5.420;2023-04-01T02:05:32;99148.84;;;9.03;100.00
72110;BME280;59983;52.010;5.420;2023-04-01T02:08:22;99144.59;;;9.02;100.00
72110;BME280;59983;52.010;5.420;2023-04-01T02:11:02;99162.75;;;9.01;100.00
72110;BME280;59983;52.010;5.420;2023-04-01T02:16:24;99155.38;;;8.98;100.00
72110;BME280;59983;52.010;5.420;2023-04-01T02:18:55;99156.53;;;8.97;100.00
72110;BME280;59983;52.010;5.420;2023-04-01T02:21:24;99170.03;;;8.97;100.00
72110;BME280;59983;52.010;5.420;2023-04-01T02:23:53;99168.09;;;8.94;100.00
72110;BME280;59983;52.010;5.420;2023-04-01T02:26:21;99168.50;;;8.96;100.00
72110;BME280;59983;52.010;5.420;2023-04-01T02:28:48;99165.78;;;8.96;100.00
72110;BME280;59983;52.010;5.420;2023-04-01T02:31:17;99161.53;;;8.95;100.00
72110;BME280;59983;52.010;5.420;2023-04-01T02:33:44;99166.53;;;8.93;100.00
72110;BME280;59983;52.010;5.420;2023-04-01T02:36:14;99169.25;;;8.93;100.00
72110;BME280;59983;52.010;5.420;2023-04-01T02:38:43;99160.38;;;8.93;100.00
72110;BME280;59983;52.010;5.420;2023-04-01T02:41:11;99167.28;;;8.90;100.00
72110;BME280;59983;52.010;5.420;2023-04-01T02:43:37;99181.22;;;8.92;100.00
72110;BME280;59983;52.010;5.420;2023-04-01T02:46:05;99161.88;;;8.90;100.00
72110;BME280;59983;52.010;5.420;2023-04-01T02:48:32;99167.69;;;8.92;100.00
72110;BME280;59983;52.010;5.420;2023-04-01T02:50:58;99179.25;;;8.89;100.00
72110;BME280;59983;52.010;5.420;2023-04-01T02:53:25;99172.66;;;8.87;100.00
72110;BME280;59983;52.010;5.420;2023-04-01T02:55:52;99171.88;;;8.86;100.00
72110;BME280;59983;52.010;5.420;2023-04-01T02:58:18;99185.41;;;8.86;100.00
72110;BME280;59983;52.010;5.420;2023-04-01T03:00:45;99170.75;;;8.87;100.00
72110;BME280;59983;52.010;5.420;2023-04-01T03:03:11;99176.53;;;8.86;100.00
72110;BME280;59983;52.010;5.420;2023-04-01T03:05:40;99182.72;;;8.86;100.00
72110;BME280;59983;52.010;5.420;2023-04-01T03:08:06;99181.94;;;8.86;100.00
72110;BME280;59983;52.010;5.420;2023-04-01T03:10:33;99176.91;;;8.84;100.00
72110;BME280;59983;52.010;5.420;2023-04-01T03:12:59;99185.78;;;8.85;100.00
72110;BME280;59983;52.010;5.420;2023-04-01T03:15:26;99187.28;;;8.82;100.00
72110;BME280;59983;52.010;5.420;2023-04-01T03:17:52;99183.44;;;8.83;100.00
72110;BME280;59983;52.010;5.420;2023-04-01T03:20:19;99188.06;;;8.83;100.00
72110;BME280;59983;52.010;5.420;2023-04-01T03:22:46;99190.00;;;8.82;100.00
72110;BME280;59983;52.010;5.420;2023-04-01T03:25:13;99208.91;;;8.82;100.00
72110;BME280;59983;52.010;5.420;2023-04-01T03:27:39;99196.56;;;8.81;100.00
72110;BME280;59983;52.010;5.420;2023-04-01T03:30:07;99198.09;;;8.82;100.00
72110;BME280;59983;52.010;5.420;2023-04-01T03:32:34;99208.53;;;8.80;100.00
72110;BME280;59983;52.010;5.420;2023-04-01T03:35:00;99204.28;;;8.83;100.00
72110;BME280;59983;52.010;5.420;2023-04-01T03:37:27;99203.50;;;8.82;100.00
72110;BME280;59983;52.010;5.420;2023-04-01T03:39:53;99207.38;;;8.81;100.00
72110;BME280;59983;52.010;5.420;2023-04-01T03:42:20;99210.06;;;8.81;100.00
72110;BME280;59983;52.010;5.420;2023-04-01T03:44:47;99206.59;;;8.80;100.00
72110;BME280;59983;52.010;5.420;2023-04-01T03:47:13;99205.44;;;8.82;100.00
72110;BME280;59983;52.010;5.420;2023-04-01T03:49:40;99207.00;;;8.83;100.00
72110;BME280;59983;52.010;5.420;2023-04-01T03:52:09;99208.56;;;8.84;100.00
72110;BME280;59983;52.010;5.420;2023-04-01T03:54:37;99208.56;;;8.84;100.00
72110;BME280;59983;52.010;5.420;2023-04-01T03:57:04;99212.81;;;8.85;100.00
72110;BME280;59983;52.010;5.420;2023-04-01T03:59:31;99220.19;;;8.88;100.00
72110;BME280;59983;52.010;5.420;2023-04-01T04:01:58;99215.53;;;8.88;100.00
72110;BME280;59983;52.010;5.420;2023-04-01T04:04:24;99220.19;;;8.88;100.00
72110;BME280;59983;52.010;5.420;2023-04-01T04:06:53;99224.03;;;8.87;100.00
72110;BME280;59983;52.010;5.420;2023-04-01T04:09:19;99228.69;;;8.90;100.00
72110;BME280;59983;52.010;5.420;2023-04-01T04:11:46;99228.69;;;8.90;100.00
72110;BME280;59983;52.010;5.420;2023-04-01T04:14:12;99231.00;;;8.91;100.00
72110;BME280;59983;52.010;5.420;2023-04-01T04:16:39;99236.06;;;8.93;100.00
72110;BME280;59983;52.010;5.420;2023-04-01T04:19:05;99239.56;;;8.93;100.00
72110;BME280;59983;52.010;5.420;2023-04-01T04:21:32;99240.31;;;8.94;100.00
72110;BME280;59983;52.010;5.420;2023-04-01T04:24:00;99244.22;;;8.96;100.00
72110;BME280;59983;52.010;5.420;2023-04-01T04:26:27;99247.31;;;8.98;100.00
72110;BME280;59983;52.010;5.420;2023-04-01T04:28:54;99250.78;;;8.99;100.00
72110;BME280;59983;52.010;5.420;2023-04-01T04:31:22;99246.59;;;9.01;100.00
72110;BME280;59983;52.010;5.420;2023-04-01T04:33:49;99256.25;;;9.02;100.00
72110;BME280;59983;52.010;5.420;2023-04-01T04:36:15;99254.31;;;9.03;100.00
72110;BME280;59983;52.010;5.420;2023-04-01T04:38:42;99256.66;;;9.04;100.00
72110;BME280;59983;52.010;5.420;2023-04-01T04:41:10;99260.53;;;9.07;100.00
72110;BME280;59983;52.010;5.420;2023-04-01T04:43:38;99273.31;;;9.10;100.00
72110;BME280;59983;52.010;5.420;2023-04-01T04:46:09;99254.38;;;9.10;100.00
72110;BME280;59983;52.010;5.420;2023-04-01T04:48:36;99254.00;;;9.12;100.00
72110;BME280;59983;52.010;5.420;2023-04-01T04:51:03;99269.09;;;9.16;100.00
72110;BME280;59983;52.010;5.420;2023-04-01T04:53:29;99268.38;;;9.19;100.00
72110;BME280;59983;52.010;5.420;2023-04-01T04:55:56;99282.28;;;9.21;100.00
72110;BME280;59983;52.010;5.420;2023-04-01T04:58:22;99285.00;;;9.21;100.00
72110;BME280;59983;52.010;5.420;2023-04-01T05:00:49;99288.09;;;9.23;100.00
72110;BME280;59983;52.010;5.420;2023-04-01T05:03:16;99300.88;;;9.26;100.00
72110;BME280;59983;52.010;5.420;2023-04-01T05:05:51;99307.06;;;9.27;100.00
72110;BME280;59983;52.010;5.420;2023-04-01T05:08:19;99310.53;;;9.27;100.00
72110;BME280;59983;52.010;5.420;2023-04-01T05:10:46;99310.19;;;9.29;100.00
72110;BME280;59983;52.010;5.420;2023-04-01T05:13:12;99314.44;;;9.30;100.00
72110;BME280;59983;52.010;5.420;2023-04-01T05:15:39;99317.94;;;9.30;100.00
72110;BME280;59983;52.010;5.420;2023-04-01T05:18:06;99323.75;;;9.32;100.00
72110;BME280;59983;52.010;5.420;2023-04-01T05:20:32;99326.44;;;9.32;100.00
72110;BME280;59983;52.010;5.420;2023-04-01T05:22:59;99330.69;;;9.33;100.00
72110;BME280;59983;52.010;5.420;2023-04-01T05:25:26;99326.84;;;9.34;100.00
72110;BME280;59983;52.010;5.420;2023-04-01T05:27:53;99338.09;;;9.36;100.00
72110;BME280;59983;52.010;5.420;2023-04-01T05:30:20;99338.44;;;9.35;100.00
72110;BME280;59983;52.010;5.420;2023-04-01T05:32:47;99354.34;;;9.36;100.00
72110;BME280;59983;52.010;5.420;2023-04-01T05:35:13;99340.41;;;9.38;100.00
72110;BME280;59983;52.010;5.420;2023-04-01T05:37:40;99347.38;;;9.39;100.00
72110;BME280;59983;52.010;5.420;2023-04-01T05:40:07;99353.97;;;9.42;100.00
72110;BME280;59983;52.010;5.420;2023-04-01T05:42:34;99364.78;;;9.42;100.00
72110;BME280;59983;52.010;5.420;2023-04-01T05:45:03;99370.22;;;9.42;100.00
72110;BME280;59983;52.010;5.420;2023-04-01T05:47:30;99376.78;;;9.44;100.00
72110;BME280;59983;52.010;5.420;2023-04-01T05:49:57;99370.22;;;9.45;100.00
72110;BME280;59983;52.010;5.420;2023-04-01T05:52:23;99382.63;;;9.46;100.00
72110;BME280;59983;52.010;5.420;2023-04-01T05:54:50;99384.59;;;9.49;100.00
72110;BME280;59983;52.010;5.420;2023-04-01T05:57:17;99385.38;;;9.50;100.00
72110;BME280;59983;52.010;5.420;2023-04-01T05:59:43;99384.22;;;9.51;100.00
72110;BME280;59983;52.010;5.420;2023-04-01T06:02:10;99388.09;;;9.53;100.00
72110;BME280;59983;52.010;5.420;2023-04-01T06:04:38;99388.47;;;9.52;100.00
72110;BME280;59983;52.010;5.420;2023-04-01T06:07:14;99395.88;;;9.55;100.00
72110;BME280;59983;52.010;5.420;2023-04-01T06:09:42;99402.06;;;9.55;100.00
72110;BME280;59983;52.010;5.420;2023-04-01T06:17:59;99414.06;;;9.61;100.00
72110;BME280;59983;52.010;5.420;2023-04-01T06:20:39;99409.81;;;9.60;100.00
72110;BME280;59983;52.010;5.420;2023-04-01T06:26:02;99428.03;;;9.63;100.00
72110;BME280;59983;52.010;5.420;2023-04-01T06:34:58;99433.88;;;9.69;100.00
72110;BME280;59983;52.010;5.420;2023-04-01T06:45:27;99459.78;;;9.70;100.00
72110;BME280;59983;52.010;5.420;2023-04-01T06:48:27;99457.88;;;9.71;100.00
72110;BME280;59983;52.010;5.420;2023-04-01T06:51:28;99461.00;;;9.73;100.00
72110;BME280;59983;52.010;5.420;2023-04-01T06:54:04;99458.28;;;9.73;100.00
72110;BME280;59983;52.010;5.420;2023-04-01T06:56:33;99465.25;;;9.74;100.00
72110;BME280;59983;52.010;5.420;2023-04-01T07:02:02;99471.06;;;9.76;100.00
72110;BME280;59983;52.010;5.420;2023-04-01T07:04:39;99472.22;;;9.75;100.00
72110;BME280;59983;52.010;5.420;2023-04-01T07:09:59;99481.94;;;9.79;100.00
72110;BME280;59983;52.010;5.420;2023-04-01T07:15:01;99493.13;;;9.78;100.00
72110;BME280;59983;52.010;5.420;2023-04-01T07:17:33;99498.59;;;9.81;100.00
72110;BME280;59983;52.010;5.420;2023-04-01T07:20:17;99505.53;;;9.79;100.00
72110;BME280;59983;52.010;5.420;2023-04-01T07:22:49;99510.94;;;9.79;100.00
72110;BME280;59983;52.010;5.420;2023-04-01T07:25:24;99507.50;;;9.82;100.00
72110;BME280;59983;52.010;5.420;2023-04-01T07:28:00;99520.69;;;9.87;100.00
72110;BME280;59983;52.010;5.420;2023-04-01T07:30:34;99531.94;;;9.89;100.00
72110;BME280;59983;52.010;5.420;2023-04-01T07:33:19;99528.88;;;9.94;100.00
72110;BME280;59983;52.010;5.420;2023-04-01T07:36:03;99537.78;;;9.91;100.00
72110;BME280;59983;52.010;5.420;2023-04-01T07:38:48;99538.56;;;9.91;100.00
72110;BME280;59983;52.010;5.420;2023-04-01T07:44:02;99541.72;;;10.01;100.00
72110;BME280;59983;52.010;5.420;2023-04-01T07:46:47;99549.88;;;10.04;100.00
72110;BME280;59983;52.010;5.420;2023-04-01T07:52:27;99555.78;;;10.13;100.00
72110;BME280;59983;52.010;5.420;2023-04-01T07:55:14;99562.41;;;10.19;100.00
72110;BME280;59983;52.010;5.420;2023-04-01T07:58:04;99568.59;;;10.16;100.00
72110;BME280;59983;52.010;5.420;2023-04-01T08:00:44;99568.53;;;10.09;100.00
72110;BME280;59983;52.010;5.420;2023-04-01T08:14:18;99592.13;;;10.09;100.00
72110;BME280;59983;52.010;5.420;2023-04-01T08:21:52;99603.69;;;10.06;100.00
72110;BME280;59983;52.010;5.420;2023-04-01T08:24:40;99605.28;;;10.10;100.00
72110;BME280;59983;52.010;5.420;2023-04-01T08:30:35;99615.78;;;10.15;100.00
72110;BME280;59983;52.010;5.420;2023-04-01T08:35:53;99627.44;;;10.16;100.00
72110;BME280;59983;52.010;5.420;2023-04-01T08:38:31;99631.78;;;10.24;100.00
72110;BME280;59983;52.010;5.420;2023-04-01T08:55:04;99652.50;;;10.43;100.00
72110;BME280;59983;52.010;5.420;2023-04-01T09:00:43;99652.91;;;10.45;100.00
72110;BME280;59983;52.010;5.420;2023-04-01T09:03:44;99656.78;;;10.44;100.00
72110;BME280;59983;52.010;5.420;2023-04-01T09:09:09;99666.34;;;10.34;100.00
72110;BME280;59983;52.010;5.420;2023-04-01T09:12:25;99668.34;;;10.41;100.00
72110;BME280;59983;52.010;5.420;2023-04-01T09:29:09;99692.03;;;10.47;100.00
72110;BME280;59983;52.010;5.420;2023-04-01T09:32:06;99700.19;;;10.51;100.00
72110;BME280;59983;52.010;5.420;2023-04-01T09:35:01;99710.25;;;10.50;100.00
72110;BME280;59983;52.010;5.420;2023-04-01T09:37:39;99700.56;;;10.49;100.00
72110;BME280;59983;52.010;5.420;2023-04-01T09:40:14;99711.38;;;10.46;100.00
72110;BME280;59983;52.010;5.420;2023-04-01T09:42:49;99721.06;;;10.43;100.00
72110;BME280;59983;52.010;5.420;2023-04-01T09:45:48;99729.97;;;10.44;100.00
72110;BME280;59983;52.010;5.420;2023-04-01T09:48:24;99719.06;;;10.40;100.00
72110;BME280;59983;52.010;5.420;2023-04-01T09:54:01;99719.16;;;10.51;100.00
72110;BME280;59983;52.010;5.420;2023-04-01T10:16:34;99745.00;;;10.75;100.00
72110;BME280;59983;52.010;5.420;2023-04-01T10:22:21;99753.81;;;10.68;100.00
72110;BME280;59983;52.010;5.420;2023-04-01T10:31:04;99762.97;;;10.90;100.00
72110;BME280;59983;52.010;5.420;2023-04-01T10:37:15;99760.91;;;11.21;100.00
72110;BME280;59983;52.010;5.420;2023-04-01T10:48:50;99764.97;;;11.96;100.00
72110;BME280;59983;52.010;5.420;2023-04-01T10:57:39;99764.34;;;12.35;100.00
72110;BME280;59983;52.010;5.420;2023-04-01T11:03:53;99781.34;;;12.17;100.00
72110;BME280;59983;52.010;5.420;2023-04-01T11:20:38;99795.50;;;11.79;100.00
72110;BME280;59983;52.010;5.420;2023-04-01T11:27:18;99801.78;;;11.90;100.00
72110;BME280;59983;52.010;5.420;2023-04-01T11:30:11;99806.88;;;11.95;100.00
72110;BME280;59983;52.010;5.420;2023-04-01T11:39:14;99824.69;;;11.85;100.00
72110;BME280;59983;52.010;5.420;2023-04-01T11:44:16;99831.47;;;11.65;100.00
72110;BME280;59983;52.010;5.420;2023-04-01T11:46:56;99839.97;;;11.60;100.00
72110;BME280;59983;52.010;5.420;2023-04-01T11:50:00;99841.09;;;11.55;100.00
72110;BME280;59983;52.010;5.420;2023-04-01T11:52:37;99844.25;;;11.57;100.00
72110;BME280;59983;52.010;5.420;2023-04-01T11:55:28;99848.91;;;11.60;100.00
72110;BME280;59983;52.010;5.420;2023-04-01T12:01:26;99859.00;;;11.63;100.00
72110;BME280;59983;52.010;5.420;2023-04-01T12:18:25;99878.66;;;11.90;100.00
72110;BME280;59983;52.010;5.420;2023-04-01T12:26:39;99891.28;;;11.72;100.00
72110;BME280;59983;52.010;5.420;2023-04-01T12:35:04;99910.81;;;11.41;100.00
72110;BME280;59983;52.010;5.420;2023-04-01T12:41:03;99901.22;;;11.54;100.00
72110;BME280;59983;52.010;5.420;2023-04-01T12:44:03;99910.53;;;11.53;100.00
72110;BME280;59983;52.010;5.420;2023-04-01T12:52:44;99914.00;;;11.50;100.00
72110;BME280;59983;52.010;5.420;2023-04-01T12:55:35;99929.22;;;11.61;100.00
72110;BME280;59983;52.010;5.420;2023-04-01T13:00:46;99924.50;;;11.55;100.00
72110;BME280;59983;52.010;5.420;2023-04-01T13:03:44;99931.50;;;11.56;100.00
72110;BME280;59983;52.010;5.420;2023-04-01T13:09:18;99926.34;;;11.44;100.00
72110;BME280;59983;52.010;5.420;2023-04-01T13:18:20;99946.31;;;11.62;100.00
72110;BME280;59983;52.010;5.420;2023-04-01T13:23:24;99945.56;;;12.06;100.00
72110;BME280;59983;52.010;5.420;2023-04-01T13:29:04;99961.47;;;12.62;100.00
72110;BME280;59983;52.010;5.420;2023-04-01T13:40:28;99961.66;;;12.29;100.00
72110;BME280;59983;52.010;5.420;2023-04-01T13:43:04;99969.38;;;12.19;100.00
72110;BME280;59983;52.010;5.420;2023-04-01T13:59:25;99989.94;;;11.76;100.00
72110;BME280;59983;52.010;5.420;2023-04-01T14:02:24;99991.41;;;11.70;100.00
72110;BME280;59983;52.010;5.420;2023-04-01T14:05:18;99990.69;;;11.77;100.00
72110;BME280;59983;52.010;5.420;2023-04-01T14:08:24;99994.00;;;11.93;100.00
72110;BME280;59983;52.010;5.420;2023-04-01T14:11:56;99990.91;;;11.95;100.00
72110;BME280;59983;52.010;5.420;2023-04-01T14:14:29;100018.38;;;11.86;100.00
72110;BME280;59983;52.010;5.420;2023-04-01T14:22:42;100012.50;;;11.80;100.00
72110;BME280;59983;52.010;5.420;2023-04-01T14:28:47;100016.91;;;11.58;100.00
72110;BME280;59983;52.010;5.420;2023-04-01T14:40:03;100038.47;;;11.44;100.00
72110;BME280;59983;52.010;5.420;2023-04-01T14:48:36;100059.13;;;11.52;100.00
72110;BME280;59983;52.010;5.420;2023-04-01T14:51:14;100053.59;;;11.45;100.00
72110;BME280;59983;52.010;5.420;2023-04-01T14:53:51;100063.28;;;11.43;100.00
72110;BME280;59983;52.010;5.420;2023-04-01T14:56:43;100061.47;;;11.54;100.00
72110;BME280;59983;52.010;5.420;2023-04-01T14:59:27;100071.50;;;11.50;100.00
72110;BME280;59983;52.010;5.420;2023-04-01T15:02:25;100087.44;;;11.51;100.00
72110;BME280;59983;52.010;5.420;2023-04-01T15:05:16;100090.56;;;11.53;100.00
72110;BME280;59983;52.010;5.420;2023-04-01T15:08:00;100094.34;;;11.45;100.00
72110;BME280;59983;52.010;5.420;2023-04-01T15:10:48;100107.91;;;11.45;100.00
72110;BME280;59983;52.010;5.420;2023-04-01T15:16:18;100112.78;;;11.32;100.00
72110;BME280;59983;52.010;5.420;2023-04-01T15:19:04;100122.13;;;11.35;100.00
72110;BME280;59983;52.010;5.420;2023-04-01T15:21:42;100117.97;;;11.41;100.00
72110;BME280;59983;52.010;5.420;2023-04-01T15:27:40;100139.72;;;11.45;100.00
72110;BME280;59983;52.010;5.420;2023-04-01T15:38:40;100151.50;;;11.56;100.00
72110;BME280;59983;52.010;5.420;2023-04-01T15:41:23;100161.53;;;11.52;100.00
72110;BME280;59983;52.010;5.420;2023-04-01T15:43:51;100161.53;;;11.52;100.00
72110;BME280;59983;52.010;5.420;2023-04-01T15:46:41;100164.66;;;11.54;100.00
72110;BME280;59983;52.010;5.420;2023-04-01T16:00:23;100189.03;;;11.77;100.00
72110;BME280;59983;52.010;5.420;2023-04-01T16:08:23;100207.03;;;11.58;100.00
72110;BME280;59983;52.010;5.420;2023-04-01T16:14:05;100221.59;;;11.47;100.00
72110;BME280;59983;52.010;5.420;2023-04-01T16:22:27;100235.91;;;11.44;100.00
72110;BME280;59983;52.010;5.420;2023-04-01T16:30:37;100248.72;;;11.43;100.00
72110;BME280;59983;52.010;5.420;2023-04-01T16:33:14;100254.16;;;11.43;100.00
72110;BME280;59983;52.010;5.420;2023-04-01T16:35:59;100256.81;;;11.40;100.00
72110;BME280;59983;52.010;5.420;2023-04-01T16:38:37;100266.09;;;11.39;100.00
72110;BME280;59983;52.010;5.420;2023-04-01T16:41:14;100273.69;;;11.29;100.00
72110;BME280;59983;52.010;5.420;2023-04-01T16:43:51;100283.91;;;11.13;100.00
72110;BME280;59983;52.010;5.420;2023-04-01T16:46:35;100283.91;;;11.13;100.00
72110;BME280;59983;52.010;5.420;2023-04-01T16:56:56;100306.34;;;11.10;100.00
72110;BME280;59983;52.010;5.420;2023-04-01T16:59:44;100317.50;;;11.05;100.00
72110;BME280;59983;52.010;5.420;2023-04-01T17:02:14;100331.09;;;11.05;100.00
72110;BME280;59983;52.010;5.420;2023-04-01T17:04:44;100332.94;;;11.01;100.00
72110;BME280;59983;52.010;5.420;2023-04-01T17:20:50;100366.56;;;10.77;100.00
72110;BME280;59983;52.010;5.420;2023-04-01T17:23:31;100372.31;;;10.72;100.00
72110;BME280;59983;52.010;5.420;2023-04-01T17:28:57;100385.28;;;10.63;100.00
72110;BME280;59983;52.010;5.420;2023-04-01T17:31:30;100391.56;;;10.67;100.00
72110;BME280;59983;52.010;5.420;2023-04-01T17:34:22;100402.41;;;10.67;100.00
72110;BME280;59983;52.010;5.420;2023-04-01T17:37:28;100402.56;;;10.55;100.00
72110;BME280;59983;52.010;5.420;2023-04-01T17:40:07;100417.94;;;10.50;100.00
72110;BME280;59983;52.010;5.420;2023-04-01T17:42:40;100422.69;;;10.54;100.00
72110;BME280;59983;52.010;5.420;2023-04-01T17:45:30;100430.53;;;10.59;100.00
72110;BME280;59983;52.010;5.420;2023-04-01T17:59:16;100461.34;;;10.50;100.00
72110;BME280;59983;52.010;5.420;2023-04-01T18:05:12;100479.91;;;10.33;100.00
72110;BME280;59983;52.010;5.420;2023-04-01T18:07:58;100491.03;;;10.28;100.00
72110;BME280;59983;52.010;5.420;2023-04-01T18:11:03;100484.91;;;10.31;100.00
72110;BME280;59983;52.010;5.420;2023-04-01T18:16:33;100510.38;;;10.26;100.00
72110;BME280;59983;52.010;5.420;2023-04-01T18:22:21;100513.56;;;10.16;100.00
72110;BME280;59983;52.010;5.420;2023-04-01T18:24:58;100524.84;;;10.18;100.00
72110;BME280;59983;52.010;5.420;2023-04-01T18:27:38;100535.69;;;10.18;100.00
72110;BME280;59983;52.010;5.420;2023-04-01T18:38:28;100559.38;;;10.21;100.00
72110;BME280;59983;52.010;5.420;2023-04-01T18:44:23;100570.66;;;10.07;100.00
72110;BME280;59983;52.010;5.420;2023-04-01T18:47:03;100577.47;;;10.17;100.00
72110;BME280;59983;52.010;5.420;2023-04-01T18:52:42;100592.84;;;10.13;100.00
72110;BME280;59983;52.010;5.420;2023-04-01T18:57:49;100605.88;;;10.07;100.00
72110;BME280;59983;52.010;5.420;2023-04-01T19:00:22;100614.44;;;10.09;100.00
72110;BME280;59983;52.010;5.420;2023-04-01T19:03:00;100623.25;;;10.06;100.00
72110;BME280;59983;52.010;5.420;2023-04-01T19:05:35;100620.88;;;10.05;100.00
72110;BME280;59983;52.010;5.420;2023-04-01T19:28:58;100673.66;;;9.95;100.00
72110;BME280;59983;52.010;5.420;2023-04-01T19:37:08;100695.25;;;9.91;100.00
72110;BME280;59983;52.010;5.420;2023-04-01T19:39:46;100691.84;;;9.94;100.00
72110;BME280;59983;52.010;5.420;2023-04-01T19:50:51;100715.34;;;9.90;100.00
72110;BME280;59983;52.010;5.420;2023-04-01T19:53:44;100720.75;;;9.90;100.00
72110;BME280;59983;52.010;5.420;2023-04-01T19:56:19;100727.53;;;9.84;100.00
72110;BME280;59983;52.010;5.420;2023-04-01T19:59:08;100733.75;;;9.85;100.00
72110;BME280;59983;52.010;5.420;2023-04-01T20:07:37;100752.84;;;9.76;100.00
72110;BME280;59983;52.010;5.420;2023-04-01T20:10:32;100767.84;;;9.74;100.00
72110;BME280;59983;52.010;5.420;2023-04-01T20:13:11;100770.22;;;9.75;100.00
72110;BME280;59983;52.010;5.420;2023-04-01T20:15:47;100779.59;;;9.65;100.00
72110;BME280;59983;52.010;5.420;2023-04-01T20:18:41;100788.63;;;9.70;100.00
72110;BME280;59983;52.010;5.420;2023-04-01T20:23:42;100801.47;;;9.60;100.00
72110;BME280;59983;52.010;5.420;2023-04-01T20:26:13;100810.41;;;9.61;100.00
72110;BME280;59983;52.010;5.420;2023-04-01T20:29:01;100811.78;;;9.55;100.00
72110;BME280;59983;52.010;5.420;2023-04-01T20:31:30;100819.09;;;9.54;100.00
72110;BME280;59983;52.010;5.420;2023-04-01T20:37:16;100838.94;;;9.58;100.00
72110;BME280;59983;52.010;5.420;2023-04-01T20:40:08;100835.09;;;9.59;100.00
72110;BME280;59983;52.010;5.420;2023-04-01T20:45:33;100846.19;;;9.54;100.00
72110;BME280;59983;52.010;5.420;2023-04-01T20:51:26;100862.19;;;9.47;100.00
72110;BME280;59983;52.010;5.420;2023-04-01T20:59:51;100868.50;;;9.51;100.00
72110;BME280;59983;52.010;5.420;2023-04-01T21:11:08;100898.00;;;9.20;100.00
72110;BME280;59983;52.010;5.420;2023-04-01T21:16:41;100905.88;;;9.13;100.00
72110;BME280;59983;52.010;5.420;2023-04-01T21:22:26;100910.16;;;9.14;100.00
72110;BME280;59983;52.010;5.420;2023-04-01T21:25:17;100927.25;;;9.05;100.00
72110;BME280;59983;52.010;5.420;2023-04-01T21:55:39;100999.53;;;8.84;100.00
72110;BME280;59983;52.010;5.420;2023-04-01T21:58:21;100998.97;;;8.91;100.00
72110;BME280;59983;52.010;5.420;2023-04-01T22:02:19;101001.09;;;8.85;100.00